sensor_id;sensor_type;location;lat;lon;timestamp;pressure;altitude;pressure_sealevel;temperature;humidity
52957;BME280;38819;42.692;23.342;2023-03-23T00:01:17;95286.31;;;8.71;75.35
52957;BME280;38819;42.692;23.342;2023-03-23T00:03:49;95282.06;;;8.65;75.53
52957;BME280;38819;42.692;23.342;2023-03-23T00:06:15;95282.06;;;8.60;75.50
52957;BME280;38819;42.692;23.342;2023-03-23T00:08:46;95274.88;;;8.40;76.52
52957;BME280;38819;42.692;23.342;2023-03-23T00:11:13;95285.94;;;8.33;76.93
52957;BME280;38819;42.692;23.342;2023-03-23T00:13:42;95277.09;;;8.28;77.33
52957;BME280;38819;42.692;23.342;2023-03-23T00:16:12;95280.03;;;8.31;77.55
52957;BME280;38819;42.692;23.342;2023-03-23T00:18:49;95277.13;;;8.23;77.29
52957;BME280;38819;42.692;23.342;2023-03-23T00:21:18;95277.16;;;8.18;77.72
52957;BME280;38819;42.692;23.342;2023-03-23T00:23:43;95276.59;;;8.21;77.32
52957;BME280;38819;42.692;23.342;2023-03-23T00:26:11;95286.03;;;8.18;77.21
52957;BME280;38819;42.692;23.342;2023-03-23T00:28:36;95285.00;;;8.04;77.63
52957;BME280;38819;42.692;23.342;2023-03-23T00:31:04;95292.53;;;8.02;77.76
52957;BME280;38819;42.692;23.342;2023-03-23T00:33:36;95291.50;;;7.92;77.82
52957;BME280;38819;42.692;23.342;2023-03-23T00:36:07;95292.28;;;7.93;78.76
52957;BME280;38819;42.692;23.342;2023-03-23T00:38:34;95303.56;;;7.95;78.90
52957;BME280;38819;42.692;23.342;2023-03-23T00:41:00;95294.94;;;8.03;79.43
52957;BME280;38819;42.692;23.342;2023-03-23T00:43:28;95299.25;;;8.09;79.19
52957;BME280;38819;42.692;23.342;2023-03-23T00:45:56;95301.94;;;8.04;79.98
52957;BME280;38819;42.692;23.342;2023-03-23T00:48:23;95299.00;;;8.06;79.63
52957;BME280;38819;42.692;23.342;2023-03-23T00:50:49;95308.94;;;8.10;78.75
52957;BME280;38819;42.692;23.342;2023-03-23T00:53:16;95304.88;;;8.08;78.48
52957;BME280;38819;42.692;23.342;2023-03-23T00:55:43;95308.94;;;8.05;77.89
52957;BME280;38819;42.692;23.342;2023-03-23T00:58:09;95303.28;;;8.02;78.89
52957;BME280;38819;42.692;23.342;2023-03-23T01:00:35;95307.03;;;8.11;78.62
52957;BME280;38819;42.692;23.342;2023-03-23T01:03:01;95306.78;;;8.07;78.62
52957;BME280;38819;42.692;23.342;2023-03-23T01:05:26;95311.06;;;8.13;78.33
52957;BME280;38819;42.692;23.342;2023-03-23T01:07:58;95302.19;;;8.13;78.05
52957;BME280;38819;42.692;23.342;2023-03-23T01:10:24;95309.41;;;8.23;77.87
52957;BME280;38819;42.692;23.342;2023-03-23T01:12:52;95312.34;;;8.31;77.52
52957;BME280;38819;42.692;23.342;2023-03-23T01:15:21;95311.50;;;8.36;77.20
52957;BME280;38819;42.692;23.342;2023-03-23T01:17:47;95303.47;;;8.31;77.34
52957;BME280;38819;42.692;23.342;2023-03-23T01:20:14;95299.16;;;8.30;78.05
52957;BME280;38819;42.692;23.342;2023-03-23T01:22:41;95302.66;;;8.35;77.99
52957;BME280;38819;42.692;23.342;2023-03-23T01:25:08;95299.97;;;8.35;77.89
52957;BME280;38819;42.692;23.342;2023-03-23T01:27:34;95298.09;;;8.31;77.76
52957;BME280;38819;42.692;23.342;2023-03-23T01:30:00;95294.03;;;8.28;78.07
52957;BME280;38819;42.692;23.342;2023-03-23T01:32:25;95287.59;;;8.29;77.85
52957;BME280;38819;42.692;23.342;2023-03-23T01:34:51;95287.06;;;8.27;78.36
52957;BME280;38819;42.692;23.342;2023-03-23T01:37:16;95287.31;;;8.31;78.18
52957;BME280;38819;42.692;23.342;2023-03-23T01:39:43;95289.75;;;8.27;78.39
52957;BME280;38819;42.692;23.342;2023-03-23T01:42:09;95282.97;;;8.35;78.36
52957;BME280;38819;42.692;23.342;2023-03-23T01:47:00;95287.84;;;8.33;78.33
52957;BME280;38819;42.692;23.342;2023-03-23T01:49:33;95282.97;;;8.35;78.32
52957;BME280;38819;42.692;23.342;2023-03-23T01:52:08;95278.41;;;8.41;77.96
52957;BME280;38819;42.692;23.342;2023-03-23T01:54:36;95276.25;;;8.43;78.18
52957;BME280;38819;42.692;23.342;2023-03-23T01:57:21;95274.88;;;8.50;78.28
52957;BME280;38819;42.692;23.342;2023-03-23T01:59:51;95274.34;;;8.38;78.40
52957;BME280;38819;42.692;23.342;2023-03-23T02:02:20;95276.00;;;8.34;78.61
52957;BME280;38819;42.692;23.342;2023-03-23T02:04:46;95276.31;;;8.27;79.21
52957;BME280;38819;42.692;23.342;2023-03-23T02:07:14;95282.72;;;8.37;78.99
52957;BME280;38819;42.692;23.342;2023-03-23T02:09:41;95276.47;;;8.51;78.67
52957;BME280;38819;42.692;23.342;2023-03-23T02:12:07;95284.34;;;8.43;78.72
52957;BME280;38819;42.692;23.342;2023-03-23T02:14:32;95283.25;;;8.44;79.35
52957;BME280;38819;42.692;23.342;2023-03-23T02:17:22;95278.72;;;8.29;80.14
52957;BME280;38819;42.692;23.342;2023-03-23T02:31:16;95283.94;;;8.00;80.61
52957;BME280;38819;42.692;23.342;2023-03-23T02:34:05;95275.63;;;7.91;80.58
52957;BME280;38819;42.692;23.342;2023-03-23T02:39:22;95282.38;;;7.78;80.55
52957;BME280;38819;42.692;23.342;2023-03-23T02:42:07;95293.41;;;7.82;80.05
52957;BME280;38819;42.692;23.342;2023-03-23T02:44:36;95292.38;;;7.67;80.17
52957;BME280;38819;42.692;23.342;2023-03-23T02:47:06;95299.63;;;7.56;80.07
52957;BME280;38819;42.692;23.342;2023-03-23T02:49:35;95300.72;;;7.40;80.33
52957;BME280;38819;42.692;23.342;2023-03-23T02:52:08;95305.84;;;7.26;80.46
52957;BME280;38819;42.692;23.342;2023-03-23T02:54:38;95311.47;;;7.19;80.22
52957;BME280;38819;42.692;23.342;2023-03-23T02:57:04;95311.75;;;7.02;80.15
52957;BME280;38819;42.692;23.342;2023-03-23T02:59:30;95313.88;;;6.95;80.32
52957;BME280;38819;42.692;23.342;2023-03-23T03:02:07;95319.25;;;6.85;80.32
52957;BME280;38819;42.692;23.342;2023-03-23T03:04:34;95325.41;;;6.91;80.10
52957;BME280;38819;42.692;23.342;2023-03-23T03:10:27;95324.91;;;6.99;79.91
52957;BME280;38819;42.692;23.342;2023-03-23T03:18:32;95338.34;;;7.14;78.71
52957;BME280;38819;42.692;23.342;2023-03-23T03:21:07;95342.91;;;7.19;78.63
52957;BME280;38819;42.692;23.342;2023-03-23T03:23:37;95322.75;;;7.21;78.57
52957;BME280;38819;42.692;23.342;2023-03-23T03:26:03;95330.81;;;7.21;78.58
52957;BME280;38819;42.692;23.342;2023-03-23T03:28:32;95335.13;;;7.28;78.41
52957;BME280;38819;42.692;23.342;2023-03-23T03:30:58;95338.06;;;7.31;78.42
52957;BME280;38819;42.692;23.342;2023-03-23T03:33:27;95339.97;;;7.41;77.87
52957;BME280;38819;42.692;23.342;2023-03-23T03:35:57;95337.00;;;7.42;77.88
52957;BME280;38819;42.692;23.342;2023-03-23T03:38:24;95347.22;;;7.46;77.73
52957;BME280;38819;42.692;23.342;2023-03-23T03:40:50;95345.59;;;7.39;77.86
52957;BME280;38819;42.692;23.342;2023-03-23T03:43:16;95346.69;;;7.44;77.84
52957;BME280;38819;42.692;23.342;2023-03-23T03:45:42;95344.25;;;7.47;77.80
52957;BME280;38819;42.692;23.342;2023-03-23T03:48:07;95342.09;;;7.54;77.68
52957;BME280;38819;42.692;23.342;2023-03-23T03:50:33;95331.63;;;7.48;77.55
52957;BME280;38819;42.692;23.342;2023-03-23T03:52:58;95339.94;;;7.61;77.17
52957;BME280;38819;42.692;23.342;2023-03-23T03:55:24;95334.03;;;7.59;77.05
52957;BME280;38819;42.692;23.342;2023-03-23T03:57:50;95334.56;;;7.67;76.74
52957;BME280;38819;42.692;23.342;2023-03-23T04:00:16;95331.31;;;7.75;76.63
52957;BME280;38819;42.692;23.342;2023-03-23T04:02:43;95334.84;;;7.70;76.98
52957;BME280;38819;42.692;23.342;2023-03-23T04:05:09;95323.53;;;7.63;77.16
52957;BME280;38819;42.692;23.342;2023-03-23T04:07:36;95329.19;;;7.61;76.89
52957;BME280;38819;42.692;23.342;2023-03-23T04:10:07;95332.16;;;7.50;77.62
52957;BME280;38819;42.692;23.342;2023-03-23T04:12:39;95329.72;;;7.48;77.25
52957;BME280;38819;42.692;23.342;2023-03-23T04:15:06;95329.47;;;7.39;77.62
52957;BME280;38819;42.692;23.342;2023-03-23T04:17:33;95332.69;;;7.36;77.96
52957;BME280;38819;42.692;23.342;2023-03-23T04:19:58;95326.50;;;7.56;77.29
52957;BME280;38819;42.692;23.342;2023-03-23T04:22:26;95334.56;;;7.51;77.41
52957;BME280;38819;42.692;23.342;2023-03-23T04:24:56;95335.09;;;7.48;77.80
52957;BME280;38819;42.692;23.342;2023-03-23T04:27:24;95335.66;;;7.40;78.20
52957;BME280;38819;42.692;23.342;2023-03-23T04:29:50;95325.16;;;7.33;78.48
52957;BME280;38819;42.692;23.342;2023-03-23T04:32:15;95327.31;;;7.41;78.51
52957;BME280;38819;42.692;23.342;2023-03-23T04:34:43;95332.69;;;7.47;77.97
52957;BME280;38819;42.692;23.342;2023-03-23T04:37:09;95338.91;;;7.42;77.93
52957;BME280;38819;42.692;23.342;2023-03-23T04:39:35;95335.94;;;7.44;78.02
52957;BME280;38819;42.692;23.342;2023-03-23T04:42:00;95348.28;;;7.45;78.09
52957;BME280;38819;42.692;23.342;2023-03-23T04:44:27;95343.44;;;7.47;78.04
52957;BME280;38819;42.692;23.342;2023-03-23T04:46:53;95341.03;;;7.60;77.90
52957;BME280;38819;42.692;23.342;2023-03-23T04:49:19;95338.09;;;7.57;77.34
52957;BME280;38819;42.692;23.342;2023-03-23T04:51:47;95341.84;;;7.56;77.47
52957;BME280;38819;42.692;23.342;2023-03-23T04:54:14;95346.41;;;7.60;77.65
52957;BME280;38819;42.692;23.342;2023-03-23T04:56:39;95343.16;;;7.48;77.78
52957;BME280;38819;42.692;23.342;2023-03-23T04:59:06;95344.00;;;7.44;77.83
52957;BME280;38819;42.692;23.342;2023-03-23T05:01:32;95347.22;;;7.46;78.13
52957;BME280;38819;42.692;23.342;2023-03-23T05:03:59;95355.78;;;7.63;78.70
52957;BME280;38819;42.692;23.342;2023-03-23T05:06:25;95356.88;;;7.67;77.86
52957;BME280;38819;42.692;23.342;2023-03-23T05:08:51;95356.88;;;7.67;77.38
52957;BME280;38819;42.692;23.342;2023-03-23T05:11:16;95354.19;;;7.67;77.92
52957;BME280;38819;42.692;23.342;2023-03-23T05:13:42;95356.59;;;7.79;77.54
52957;BME280;38819;42.692;23.342;2023-03-23T05:16:09;95364.41;;;7.81;77.62
52957;BME280;38819;42.692;23.342;2023-03-23T05:18:35;95359.78;;;7.91;77.43
52957;BME280;38819;42.692;23.342;2023-03-23T05:21:02;95358.72;;;7.97;77.32
52957;BME280;38819;42.692;23.342;2023-03-23T05:23:28;95374.59;;;7.94;77.08
52957;BME280;38819;42.692;23.342;2023-03-23T05:25:57;95380.56;;;7.65;77.70
52957;BME280;38819;42.692;23.342;2023-03-23T05:28:26;95377.84;;;7.70;77.54
52957;BME280;38819;42.692;23.342;2023-03-23T05:30:52;95374.91;;;7.72;77.78
52957;BME280;38819;42.692;23.342;2023-03-23T05:33:19;95385.38;;;7.68;77.66
52957;BME280;38819;42.692;23.342;2023-03-23T05:35:46;95382.97;;;7.77;77.25
52957;BME280;38819;42.692;23.342;2023-03-23T05:38:12;95379.19;;;7.68;77.77
52957;BME280;38819;42.692;23.342;2023-03-23T05:40:40;95379.72;;;7.65;77.59
52957;BME280;38819;42.692;23.342;2023-03-23T05:43:07;95385.09;;;7.70;77.84
52957;BME280;38819;42.692;23.342;2023-03-23T05:45:33;95385.66;;;7.72;77.46
52957;BME280;38819;42.692;23.342;2023-03-23T05:47:59;95395.56;;;7.82;77.30
52957;BME280;38819;42.692;23.342;2023-03-23T05:50:24;95387.50;;;7.87;77.33
52957;BME280;38819;42.692;23.342;2023-03-23T05:52:50;95388.31;;;7.87;76.93
52957;BME280;38819;42.692;23.342;2023-03-23T05:55:16;95396.66;;;7.91;76.84
52957;BME280;38819;42.692;23.342;2023-03-23T05:57:42;95397.72;;;7.95;76.78
52957;BME280;38819;42.692;23.342;2023-03-23T06:00:08;95394.75;;;7.96;76.81
52957;BME280;38819;42.692;23.342;2023-03-23T06:02:39;95403.38;;;8.04;76.29
52957;BME280;38819;42.692;23.342;2023-03-23T06:05:05;95403.66;;;7.97;76.95
52957;BME280;38819;42.692;23.342;2023-03-23T06:07:30;95400.69;;;8.04;76.94
52957;BME280;38819;42.692;23.342;2023-03-23T06:09:56;95404.16;;;8.04;76.20
52957;BME280;38819;42.692;23.342;2023-03-23T06:12:21;95404.44;;;7.92;76.43
52957;BME280;38819;42.692;23.342;2023-03-23T06:14:47;95404.47;;;7.87;76.32
52957;BME280;38819;42.692;23.342;2023-03-23T06:17:14;95394.78;;;7.60;76.89
52957;BME280;38819;42.692;23.342;2023-03-23T06:19:41;95403.91;;;7.65;77.02
52957;BME280;38819;42.692;23.342;2023-03-23T06:22:06;95388.63;;;7.65;76.78
52957;BME280;38819;42.692;23.342;2023-03-23T06:24:32;95407.69;;;7.69;77.25
52957;BME280;38819;42.692;23.342;2023-03-23T06:26:58;95412.50;;;7.61;77.48
52957;BME280;38819;42.692;23.342;2023-03-23T06:29:24;95403.38;;;7.68;77.71
52957;BME280;38819;42.692;23.342;2023-03-23T06:31:53;95411.97;;;7.75;77.01
52957;BME280;38819;42.692;23.342;2023-03-23T06:34:20;95403.09;;;7.90;76.66
52957;BME280;38819;42.692;23.342;2023-03-23T06:36:46;95408.19;;;7.96;76.65
52957;BME280;38819;42.692;23.342;2023-03-23T06:39:12;95414.66;;;8.01;76.40
52957;BME280;38819;42.692;23.342;2023-03-23T06:41:39;95403.09;;;8.05;76.28
52957;BME280;38819;42.692;23.342;2023-03-23T06:44:05;95403.63;;;8.12;76.08
52957;BME280;38819;42.692;23.342;2023-03-23T06:46:31;95408.19;;;8.12;76.04
52957;BME280;38819;42.692;23.342;2023-03-23T06:48:57;95415.97;;;8.24;76.29
52957;BME280;38819;42.692;23.342;2023-03-23T06:51:24;95417.28;;;8.37;75.73
52957;BME280;38819;42.692;23.342;2023-03-23T06:53:50;95420.53;;;8.39;75.83
52957;BME280;38819;42.692;23.342;2023-03-23T06:56:16;95419.41;;;8.50;75.58
52957;BME280;38819;42.692;23.342;2023-03-23T06:58:41;95417.53;;;8.56;74.73
52957;BME280;38819;42.692;23.342;2023-03-23T07:01:07;95415.63;;;8.61;74.38
52957;BME280;38819;42.692;23.342;2023-03-23T07:03:34;95418.78;;;8.74;74.06
52957;BME280;38819;42.692;23.342;2023-03-23T07:06:00;95411.78;;;8.83;73.99
52957;BME280;38819;42.692;23.342;2023-03-23T07:08:26;95422.25;;;8.89;74.36
52957;BME280;38819;42.692;23.342;2023-03-23T07:10:52;95428.69;;;8.99;73.67
52957;BME280;38819;42.692;23.342;2023-03-23T07:13:19;95427.25;;;9.12;73.69
52957;BME280;38819;42.692;23.342;2023-03-23T07:15:44;95422.38;;;9.14;73.51
52957;BME280;38819;42.692;23.342;2023-03-23T07:18:10;95421.81;;;9.17;73.56
52957;BME280;38819;42.692;23.342;2023-03-23T07:20:36;95417.50;;;9.21;73.23
52957;BME280;38819;42.692;23.342;2023-03-23T07:23:02;95422.59;;;9.27;73.06
52957;BME280;38819;42.692;23.342;2023-03-23T07:25:30;95418.19;;;9.37;73.07
52957;BME280;38819;42.692;23.342;2023-03-23T07:27:56;95424.41;;;9.37;72.81
52957;BME280;38819;42.692;23.342;2023-03-23T07:30:22;95420.31;;;9.45;72.84
52957;BME280;38819;42.692;23.342;2023-03-23T07:32:47;95409.06;;;9.33;72.83
52957;BME280;38819;42.692;23.342;2023-03-23T07:35:13;95420.03;;;9.46;72.93
52957;BME280;38819;42.692;23.342;2023-03-23T07:37:38;95424.56;;;9.56;72.84
52957;BME280;38819;42.692;23.342;2023-03-23T07:40:04;95421.53;;;9.63;72.59
52957;BME280;38819;42.692;23.342;2023-03-23T07:42:33;95426.63;;;9.70;72.38
52957;BME280;38819;42.692;23.342;2023-03-23T07:44:59;95433.81;;;9.79;71.85
52957;BME280;38819;42.692;23.342;2023-03-23T07:47:25;95421.91;;;9.86;71.58
52957;BME280;38819;42.692;23.342;2023-03-23T07:49:51;95423.69;;;9.95;71.09
52957;BME280;38819;42.692;23.342;2023-03-23T07:52:16;95429.31;;;10.04;70.89
52957;BME280;38819;42.692;23.342;2023-03-23T07:54:42;95429.91;;;9.96;71.42
52957;BME280;38819;42.692;23.342;2023-03-23T07:57:08;95434.13;;;10.07;70.96
52957;BME280;38819;42.692;23.342;2023-03-23T07:59:33;95428.44;;;10.09;70.63
52957;BME280;38819;42.692;23.342;2023-03-23T08:01:59;95435.75;;;10.08;70.84
52957;BME280;38819;42.692;23.342;2023-03-23T08:04:24;95419.53;;;10.08;70.41
52957;BME280;38819;42.692;23.342;2023-03-23T08:06:52;95439.16;;;10.19;70.73
52957;BME280;38819;42.692;23.342;2023-03-23T08:09:17;95435.00;;;10.32;70.43
52957;BME280;38819;42.692;23.342;2023-03-23T08:11:43;95438.59;;;10.51;69.75
52957;BME280;38819;42.692;23.342;2023-03-23T08:14:08;95436.22;;;10.69;68.68
52957;BME280;38819;42.692;23.342;2023-03-23T08:16:34;95429.91;;;10.79;68.61
52957;BME280;38819;42.692;23.342;2023-03-23T08:19:01;95434.22;;;10.80;67.65
52957;BME280;38819;42.692;23.342;2023-03-23T08:21:27;95421.28;;;10.77;67.47
52957;BME280;38819;42.692;23.342;2023-03-23T08:23:52;95429.53;;;10.66;67.13
52957;BME280;38819;42.692;23.342;2023-03-23T08:26:18;95430.59;;;10.65;67.75
52957;BME280;38819;42.692;23.342;2023-03-23T08:28:44;95435.66;;;10.72;66.50
52957;BME280;38819;42.692;23.342;2023-03-23T08:31:12;95418.75;;;10.85;66.99
52957;BME280;38819;42.692;23.342;2023-03-23T08:33:39;95429.09;;;11.02;66.09
52957;BME280;38819;42.692;23.342;2023-03-23T08:36:05;95423.25;;;11.14;65.93
52957;BME280;38819;42.692;23.342;2023-03-23T08:38:31;95428.41;;;11.35;65.59
52957;BME280;38819;42.692;23.342;2023-03-23T08:41:01;95422.63;;;11.41;64.90
52957;BME280;38819;42.692;23.342;2023-03-23T08:43:29;95423.50;;;11.37;63.15
52957;BME280;38819;42.692;23.342;2023-03-23T08:45:54;95425.09;;;11.57;63.19
52957;BME280;38819;42.692;23.342;2023-03-23T08:48:20;95425.75;;;11.67;63.88
52957;BME280;38819;42.692;23.342;2023-03-23T08:50:47;95425.66;;;11.73;63.54
52957;BME280;38819;42.692;23.342;2023-03-23T08:53:13;95424.94;;;11.67;62.17
52957;BME280;38819;42.692;23.342;2023-03-23T08:55:39;95409.09;;;11.60;62.39
52957;BME280;38819;42.692;23.342;2023-03-23T08:58:05;95419.91;;;11.60;59.27
52957;BME280;38819;42.692;23.342;2023-03-23T09:00:31;95423.66;;;11.64;59.21
52957;BME280;38819;42.692;23.342;2023-03-23T09:02:57;95418.00;;;11.80;58.64
52957;BME280;38819;42.692;23.342;2023-03-23T09:05:24;95423.19;;;11.95;58.52
52957;BME280;38819;42.692;23.342;2023-03-23T09:07:52;95419.00;;;12.03;56.96
52957;BME280;38819;42.692;23.342;2023-03-23T09:10:18;95426.38;;;11.97;58.06
52957;BME280;38819;42.692;23.342;2023-03-23T09:12:45;95405.19;;;12.04;57.82
52957;BME280;38819;42.692;23.342;2023-03-23T09:15:14;95414.03;;;12.24;58.05
52957;BME280;38819;42.692;23.342;2023-03-23T09:17:43;95418.16;;;12.21;56.15
52957;BME280;38819;42.692;23.342;2023-03-23T09:20:11;95422.97;;;12.25;56.32
52957;BME280;38819;42.692;23.342;2023-03-23T09:22:39;95420.66;;;12.32;56.22
52957;BME280;38819;42.692;23.342;2023-03-23T09:25:09;95412.47;;;12.51;56.03
52957;BME280;38819;42.692;23.342;2023-03-23T09:27:36;95410.03;;;12.49;55.99
52957;BME280;38819;42.692;23.342;2023-03-23T09:30:08;95415.94;;;12.37;55.75
52957;BME280;38819;42.692;23.342;2023-03-23T09:32:35;95416.03;;;12.32;55.21
52957;BME280;38819;42.692;23.342;2023-03-23T09:35:02;95408.00;;;12.27;55.48
52957;BME280;38819;42.692;23.342;2023-03-23T09:37:28;95394.19;;;12.29;55.86
52957;BME280;38819;42.692;23.342;2023-03-23T09:39:54;95402.41;;;12.23;54.79
52957;BME280;38819;42.692;23.342;2023-03-23T09:42:48;95401.38;;;12.19;55.66
52957;BME280;38819;42.692;23.342;2023-03-23T09:45:26;95395.06;;;12.24;56.61
52957;BME280;38819;42.692;23.342;2023-03-23T09:50:27;95399.81;;;12.32;55.21
52957;BME280;38819;42.692;23.342;2023-03-23T09:53:04;95395.41;;;12.36;54.45
52957;BME280;38819;42.692;23.342;2023-03-23T09:55:34;95397.78;;;12.24;53.40
52957;BME280;38819;42.692;23.342;2023-03-23T10:01:14;95396.50;;;12.35;53.13
52957;BME280;38819;42.692;23.342;2023-03-23T10:03:47;95381.56;;;12.38;54.16
52957;BME280;38819;42.692;23.342;2023-03-23T10:06:17;95385.16;;;12.33;53.19
52957;BME280;38819;42.692;23.342;2023-03-23T10:08:47;95388.97;;;12.32;53.69
52957;BME280;38819;42.692;23.342;2023-03-23T10:16:36;95380.88;;;12.60;55.29
52957;BME280;38819;42.692;23.342;2023-03-23T10:19:12;95384.06;;;12.76;55.19
52957;BME280;38819;42.692;23.342;2023-03-23T10:21:42;95382.66;;;12.78;55.53
52957;BME280;38819;42.692;23.342;2023-03-23T10:24:14;95382.75;;;12.87;54.73
52957;BME280;38819;42.692;23.342;2023-03-23T10:26:53;95375.91;;;13.04;54.23
52957;BME280;38819;42.692;23.342;2023-03-23T10:29:23;95368.34;;;13.14;53.23
52957;BME280;38819;42.692;23.342;2023-03-23T10:31:59;95379.41;;;13.18;53.19
52957;BME280;38819;42.692;23.342;2023-03-23T10:34:49;95375.72;;;13.00;53.83
52957;BME280;38819;42.692;23.342;2023-03-23T10:37:38;95370.78;;;13.02;53.88
52957;BME280;38819;42.692;23.342;2023-03-23T10:40:06;95378.72;;;12.98;54.19
52957;BME280;38819;42.692;23.342;2023-03-23T10:42:39;95367.28;;;13.02;53.57
52957;BME280;38819;42.692;23.342;2023-03-23T10:45:21;95376.38;;;13.20;53.91
52957;BME280;38819;42.692;23.342;2023-03-23T10:48:11;95364.31;;;13.26;53.03
52957;BME280;38819;42.692;23.342;2023-03-23T10:50:39;95361.28;;;13.27;52.85
52957;BME280;38819;42.692;23.342;2023-03-23T10:53:23;95367.63;;;13.37;51.91
52957;BME280;38819;42.692;23.342;2023-03-23T10:55:50;95365.22;;;13.35;52.25
52957;BME280;38819;42.692;23.342;2023-03-23T10:58:27;95359.88;;;13.30;51.86
52957;BME280;38819;42.692;23.342;2023-03-23T11:00:57;95364.59;;;13.24;53.32
52957;BME280;38819;42.692;23.342;2023-03-23T11:06:30;95362.50;;;13.35;51.91
52957;BME280;38819;42.692;23.342;2023-03-23T11:09:03;95356.84;;;13.45;52.58
52957;BME280;38819;42.692;23.342;2023-03-23T11:11:39;95361.16;;;13.46;51.15
52957;BME280;38819;42.692;23.342;2023-03-23T11:14:26;95351.66;;;13.58;50.60
52957;BME280;38819;42.692;23.342;2023-03-23T11:16:57;95349.25;;;13.56;50.93
52957;BME280;38819;42.692;23.342;2023-03-23T11:24:32;95336.25;;;13.67;52.14
52957;BME280;38819;42.692;23.342;2023-03-23T11:26:58;95337.63;;;13.78;52.15
52957;BME280;38819;42.692;23.342;2023-03-23T11:29:26;95332.19;;;13.78;51.72
52957;BME280;38819;42.692;23.342;2023-03-23T11:32:03;95329.69;;;13.90;51.44
52957;BME280;38819;42.692;23.342;2023-03-23T11:34:33;95325.91;;;14.00;50.46
52957;BME280;38819;42.692;23.342;2023-03-23T11:37:07;95320.69;;;14.13;49.68
52957;BME280;38819;42.692;23.342;2023-03-23T11:42:18;95315.59;;;14.20;50.56
52957;BME280;38819;42.692;23.342;2023-03-23T11:44:44;95310.72;;;14.31;49.99
52957;BME280;38819;42.692;23.342;2023-03-23T11:52:43;95309.09;;;14.30;50.53
52957;BME280;38819;42.692;23.342;2023-03-23T11:55:16;95318.06;;;14.30;50.94
52957;BME280;38819;42.692;23.342;2023-03-23T11:57:44;95309.94;;;14.39;50.69
52957;BME280;38819;42.692;23.342;2023-03-23T12:00:18;95300.53;;;14.45;49.60
52957;BME280;38819;42.692;23.342;2023-03-23T12:03:05;95299.75;;;14.53;49.33
52957;BME280;38819;42.692;23.342;2023-03-23T12:11:33;95289.16;;;14.43;48.57
52957;BME280;38819;42.692;23.342;2023-03-23T12:14:30;95290.09;;;14.30;49.59
52957;BME280;38819;42.692;23.342;2023-03-23T12:22:45;95290.84;;;14.61;48.99
52957;BME280;38819;42.692;23.342;2023-03-23T12:30:55;95295.91;;;14.54;48.43
52957;BME280;38819;42.692;23.342;2023-03-23T12:33:51;95292.78;;;14.61;49.37
52957;BME280;38819;42.692;23.342;2023-03-23T12:47:54;95269.91;;;14.62;48.43
52957;BME280;38819;42.692;23.342;2023-03-23T12:50:39;95270.34;;;14.55;49.24
52957;BME280;38819;42.692;23.342;2023-03-23T12:53:21;95270.66;;;14.45;47.95
52957;BME280;38819;42.692;23.342;2023-03-23T12:56:10;95262.03;;;14.52;47.78
52957;BME280;38819;42.692;23.342;2023-03-23T12:58:41;95263.84;;;14.65;47.50
52957;BME280;38819;42.692;23.342;2023-03-23T13:01:22;95262.72;;;14.75;47.26
52957;BME280;38819;42.692;23.342;2023-03-23T13:03:54;95261.63;;;14.76;47.42
52957;BME280;38819;42.692;23.342;2023-03-23T13:06:43;95253.16;;;14.69;47.29
52957;BME280;38819;42.692;23.342;2023-03-23T13:09:36;95255.53;;;14.70;47.21
52957;BME280;38819;42.692;23.342;2023-03-23T13:12:04;95255.72;;;14.74;47.86
52957;BME280;38819;42.692;23.342;2023-03-23T13:21:26;95243.22;;;14.81;48.83
52957;BME280;38819;42.692;23.342;2023-03-23T13:23:40;95242.44;;;14.90;49.38
52957;BME280;38819;42.692;23.342;2023-03-23T13:26:14;95238.28;;;15.01;48.63
52957;BME280;38819;42.692;23.342;2023-03-23T13:36:32;95242.94;;;15.09;48.44
52957;BME280;38819;42.692;23.342;2023-03-23T13:39:02;95239.06;;;14.93;47.03
52957;BME280;38819;42.692;23.342;2023-03-23T13:41:29;95239.88;;;14.93;47.45
52957;BME280;38819;42.692;23.342;2023-03-23T13:44:16;95231.41;;;14.95;47.31
52957;BME280;38819;42.692;23.342;2023-03-23T13:46:57;95225.63;;;14.96;47.25
52957;BME280;38819;42.692;23.342;2023-03-23T13:49:24;95231.56;;;15.07;47.71
52957;BME280;38819;42.692;23.342;2023-03-23T13:54:30;95225.66;;;15.05;47.91
52957;BME280;38819;42.692;23.342;2023-03-23T13:57:01;95236.53;;;14.88;48.02
52957;BME280;38819;42.692;23.342;2023-03-23T13:59:58;95231.91;;;14.97;47.78
52957;BME280;38819;42.692;23.342;2023-03-23T14:05:27;95231.91;;;14.97;47.41
52957;BME280;38819;42.692;23.342;2023-03-23T14:08:14;95223.41;;;14.98;48.13
52957;BME280;38819;42.692;23.342;2023-03-23T14:10:49;95222.13;;;15.05;48.43
52957;BME280;38819;42.692;23.342;2023-03-23T14:13:19;95215.72;;;15.09;49.39
52957;BME280;38819;42.692;23.342;2023-03-23T14:16:14;95212.97;;;15.27;48.87
52957;BME280;38819;42.692;23.342;2023-03-23T14:18:48;95207.38;;;15.32;47.46
52957;BME280;38819;42.692;23.342;2023-03-23T14:21:25;95206.09;;;15.29;47.52
52957;BME280;38819;42.692;23.342;2023-03-23T14:23:52;95213.47;;;15.29;47.59
52957;BME280;38819;42.692;23.342;2023-03-23T14:26:20;95205.75;;;15.40;47.51
52957;BME280;38819;42.692;23.342;2023-03-23T14:28:50;95207.19;;;15.46;46.93
52957;BME280;38819;42.692;23.342;2023-03-23T14:31:22;95201.72;;;15.54;47.62
52957;BME280;38819;42.692;23.342;2023-03-23T14:33:50;95203.28;;;15.64;47.57
52957;BME280;38819;42.692;23.342;2023-03-23T14:36:21;95203.78;;;15.57;47.86
52957;BME280;38819;42.692;23.342;2023-03-23T14:39:04;95204.47;;;15.46;47.22
52957;BME280;38819;42.692;23.342;2023-03-23T14:41:32;95200.28;;;15.48;47.78
52957;BME280;38819;42.692;23.342;2023-03-23T14:44:02;95207.97;;;15.46;47.96
52957;BME280;38819;42.692;23.342;2023-03-23T14:46:30;95207.50;;;15.44;47.21
52957;BME280;38819;42.692;23.342;2023-03-23T14:48:58;95206.72;;;15.44;47.16